Time;durP1;ratioP1;P1;durP2;ratioP2;P2;SDS_P1;SDS_P2;PMS_P1;PMS_P2;Temp;Humidity;BMP_temperature;BMP_pressure;BME280_temperature;BME280_humidity;BME280_pressure;Samples;Min_cycle;Max_cycle;Signal;HPM_P1;HPM_P2
2021/05/27 00:02:47;;;;;;;;;3.00;2.20;;;;;19.82;31.06;98524.84;6206388;28;125496;-67
2021/05/27 00:05:50;;;;;;;;;3.00;3.00;;;;;19.82;31.23;98533.88;6211554;28;126059;-67
2021/05/27 00:08:52;;;;;;;;;2.40;2.40;;;;;19.95;31.18;98539.75;6211085;28;126411;-68
2021/05/27 00:11:55;;;;;;;;;3.00;3.00;;;;;19.93;31.47;98542.81;6211184;28;126366;-67
2021/05/27 00:15:00;;;;;;;;;4.00;4.00;;;;;19.90;31.46;98541.44;6211201;28;97284;-67
2021/05/27 00:18:04;;;;;;;;;4.25;3.00;;;;;19.89;31.40;98549.94;6210690;28;126228;-67
2021/05/27 00:21:06;;;;;;;;;3.00;3.00;;;;;19.88;31.35;98549.16;6209492;28;125144;-67
2021/05/27 00:24:09;;;;;;;;;4.00;3.00;;;;;19.87;31.33;98552.16;6210032;28;124100;-67
2021/05/27 00:27:12;;;;;;;;;3.00;3.00;;;;;19.83;31.45;98546.47;6209463;28;125994;-68
2021/05/27 00:30:17;;;;;;;;;3.60;3.00;;;;;19.75;31.69;98533.41;6209392;28;126131;-67
2021/05/27 00:33:20;;;;;;;;;4.00;4.00;;;;;19.84;31.35;98550.00;6210187;28;124735;-68
2021/05/27 00:36:22;;;;;;;;;4.60;4.00;;;;;19.86;31.34;98545.06;6200892;28;126380;-68
2021/05/27 00:39:25;;;;;;;;;2.00;2.00;;;;;19.82;31.54;98550.28;6209851;28;126676;-67
2021/05/27 00:42:28;;;;;;;;;3.00;2.00;;;;;19.85;31.43;98552.44;6211065;28;125402;-67
2021/05/27 00:45:32;;;;;;;;;3.00;3.00;;;;;19.88;31.60;98554.63;6209784;28;126355;-68
2021/05/27 00:51:55;;;;;;;;;3.20;3.20;;;;;19.88;31.49;98553.78;6199479;28;125876;-68
2021/05/27 00:54:59;;;;;;;;;4.00;3.50;;;;;19.76;31.48;98536.94;6206730;28;126361;-68
2021/05/27 00:58:02;;;;;;;;;2.50;2.00;;;;;19.87;31.18;98547.50;6209642;28;124687;-68
2021/05/27 01:01:06;;;;;;;;;4.00;4.00;;;;;19.87;31.39;98550.25;6209181;28;124244;-67
2021/05/27 01:04:11;;;;;;;;;2.80;2.80;;;;;19.85;31.22;98552.44;6185885;28;123517;-67
2021/05/27 01:07:14;;;;;;;;;3.00;2.00;;;;;19.81;31.23;98543.19;6211785;28;125678;-68
2021/05/27 01:10:17;;;;;;;;;2.80;2.00;;;;;19.85;31.23;98538.75;6212509;28;126355;-67
2021/05/27 01:13:21;;;;;;;;;4.00;3.00;;;;;19.71;31.21;98526.88;6213941;28;126353;-67
2021/05/27 01:16:24;;;;;;;;;4.00;3.00;;;;;19.93;31.10;98542.81;6214882;28;125668;-67
2021/05/27 01:19:27;;;;;;;;;3.00;3.00;;;;;19.88;31.04;98526.44;6214088;28;126853;-68
2021/05/27 01:22:31;;;;;;;;;3.00;2.60;;;;;20.02;31.09;98546.53;6212935;28;124847;-68
2021/05/27 01:25:34;;;;;;;;;3.00;3.00;;;;;19.98;31.19;98542.75;6212785;28;124932;-67
2021/05/27 01:28:37;;;;;;;;;3.00;2.20;;;;;19.99;31.41;98540.81;6214357;28;124667;-68
2021/05/27 01:31:40;;;;;;;;;3.00;3.00;;;;;19.94;31.84;98535.41;6214331;28;126237;-67
2021/05/27 01:34:47;;;;;;;;;3.00;2.75;;;;;19.95;32.24;98543.31;6213652;28;127150;-67
2021/05/27 01:37:51;;;;;;;;;2.00;2.00;;;;;19.85;32.68;98544.22;6212841;28;124714;-67
2021/05/27 01:40:57;;;;;;;;;4.00;3.00;;;;;19.77;33.03;98555.81;6211211;28;124834;-67
2021/05/27 01:44:00;;;;;;;;;2.00;2.00;;;;;19.78;32.90;98556.63;6212978;28;123813;-68
2021/05/27 01:47:03;;;;;;;;;4.00;3.00;;;;;19.73;33.26;98554.78;6212358;28;126160;-68
2021/05/27 01:50:09;;;;;;;;;3.00;2.60;;;;;19.77;33.36;98555.81;6212069;28;126239;-68
2021/05/27 01:53:14;;;;;;;;;3.00;3.00;;;;;19.75;33.32;98557.19;6205103;28;126053;-67
2021/05/27 01:56:17;;;;;;;;;3.40;3.40;;;;;19.74;33.15;98553.63;6210285;28;126590;-67
2021/05/27 01:59:22;;;;;;;;;3.00;3.00;;;;;19.80;33.35;98559.88;6213628;28;125965;-67
2021/05/27 02:02:26;;;;;;;;;3.00;2.00;;;;;19.75;33.44;98554.47;6206345;28;124995;-67
2021/05/27 02:05:29;;;;;;;;;3.40;3.00;;;;;19.70;33.40;98533.44;6211452;28;124929;-67
2021/05/27 02:08:35;;;;;;;;;4.00;4.00;;;;;19.80;33.40;98557.97;6208590;28;124821;-67
2021/05/27 02:11:43;;;;;;;;;3.00;3.00;;;;;19.67;33.68;98536.78;6189474;28;123948;-67
2021/05/27 02:14:47;;;;;;;;;2.00;2.00;;;;;19.81;33.50;98562.34;6203697;28;126092;-67
2021/05/27 02:17:49;;;;;;;;;3.00;3.00;;;;;19.83;33.88;98565.59;6205035;28;126209;-67
2021/05/27 02:20:52;;;;;;;;;2.00;2.00;;;;;19.89;33.86;98566.34;6211953;28;126800;-68
2021/05/27 02:23:56;;;;;;;;;3.00;3.00;;;;;19.89;33.80;98575.38;6220402;28;127098;-67
2021/05/27 02:27:01;;;;;;;;;3.00;3.00;;;;;19.93;33.81;98567.41;6193690;28;126056;-68
2021/05/27 02:30:05;;;;;;;;;2.60;2.60;;;;;20.01;33.49;98574.16;6216452;28;126219;-67
2021/05/27 02:33:09;;;;;;;;;2.50;2.50;;;;;20.10;33.81;98588.84;6188994;28;124683;-68
2021/05/27 02:36:12;;;;;;;;;3.40;3.40;;;;;20.03;33.96;98559.09;6170608;28;124397;-68
2021/05/27 02:39:16;;;;;;;;;3.00;3.00;;;;;20.22;33.90;98579.13;6199140;28;126923;-67
2021/05/27 02:42:24;;;;;;;;;4.20;3.60;;;;;20.23;34.18;98577.22;6209716;28;124854;-68
2021/05/27 02:45:28;;;;;;;;;4.00;3.00;;;;;20.21;33.92;98582.16;6209997;28;125267;-68
2021/05/27 02:48:32;;;;;;;;;4.00;4.00;;;;;20.16;34.27;98582.22;6210931;28;126820;-68
2021/05/27 02:51:35;;;;;;;;;3.00;2.50;;;;;20.10;34.34;98586.91;6212354;28;124958;-67
2021/05/27 02:54:38;;;;;;;;;3.60;3.00;;;;;20.12;34.50;98581.97;6212761;28;126367;-67
2021/05/27 02:57:42;;;;;;;;;4.50;4.00;;;;;20.06;35.08;98587.78;6210418;28;125944;-68
2021/05/27 03:00:45;;;;;;;;;5.00;4.40;;;;;19.95;35.42;98589.81;6209283;28;126696;-67
2021/05/27 03:03:56;;;;;;;;;4.00;4.00;;;;;19.76;35.86;98567.03;6209977;28;125864;-67
2021/05/27 03:06:58;;;;;;;;;5.00;4.40;;;;;19.89;36.57;98596.44;6208695;28;125623;-68
2021/05/27 03:10:04;;;;;;;;;3.00;3.00;;;;;19.65;36.12;98555.38;6202031;28;123974;-68
2021/05/27 03:13:08;;;;;;;;;4.00;4.00;;;;;19.88;35.68;98597.56;6210245;28;124941;-67
2021/05/27 03:16:13;;;;;;;;;4.00;4.00;;;;;19.94;35.69;98595.59;6210714;28;124746;-68
2021/05/27 03:19:18;;;;;;;;;5.00;5.00;;;;;19.95;35.53;98603.50;6209164;28;126074;-67
2021/05/27 03:22:20;;;;;;;;;6.00;4.50;;;;;19.87;35.74;98604.97;6209314;28;125690;-68
2021/05/27 03:25:25;;;;;;;;;6.00;6.00;;;;;19.85;35.72;98603.59;6206628;28;127678;-68
2021/05/27 03:28:28;;;;;;;;;6.00;5.00;;;;;19.81;35.59;98594.34;6205437;28;124775;-67
2021/05/27 03:31:38;;;;;;;;;5.00;5.00;;;;;19.80;35.69;98609.13;6181730;28;124236;-68
2021/05/27 03:34:43;;;;;;;;;4.00;4.00;;;;;19.83;35.69;98603.09;6200877;28;124779;-67
2021/05/27 03:37:46;;;;;;;;;4.00;4.00;;;;;19.86;35.61;98613.44;6206982;28;125192;-68
2021/05/27 03:40:50;;;;;;;;;4.00;4.00;;;;;19.88;36.55;98613.97;6208518;28;126344;-67
2021/05/27 03:43:53;;;;;;;;;5.00;4.00;;;;;19.90;36.80;98618.03;6202258;28;126273;-68
2021/05/27 03:46:55;;;;;;;;;5.00;4.25;;;;;19.93;36.20;98615.84;6212221;28;126828;-67
2021/05/27 03:49:58;;;;;;;;;6.00;5.00;;;;;19.94;35.95;98621.00;6202499;28;125406;-67
2021/05/27 03:53:03;;;;;;;;;5.40;5.00;;;;;20.01;35.92;98615.22;6192112;28;125295;-67
2021/05/27 03:56:08;;;;;;;;;3.60;3.40;;;;;20.06;35.97;98618.72;6200503;28;124819;-68
2021/05/27 04:02:54;;;;;;;;;5.40;5.00;;;;;19.94;36.25;98628.44;6208421;28;124900;-67
2021/05/27 04:09:30;;;;;;;;;4.00;4.00;;;;;19.83;36.54;98630.44;6200838;28;126232;-67
2021/05/27 04:12:46;;;;;;;;;4.00;4.00;;;;;19.86;36.56;98627.13;6193681;28;125218;-67
2021/05/27 04:16:04;;;;;;;;;5.67;5.67;;;;;19.96;36.69;98623.47;6208078;28;126814;-67
2021/05/27 04:19:07;;;;;;;;;4.00;4.00;;;;;20.00;36.42;98627.25;6203474;28;126246;-67
2021/05/27 04:22:10;;;;;;;;;3.00;3.00;;;;;20.10;36.47;98627.97;6208627;28;126246;-67
2021/05/27 04:25:13;;;;;;;;;3.00;3.00;;;;;20.12;36.43;98628.50;6209119;28;126525;-67
2021/05/27 04:28:17;;;;;;;;;3.00;3.00;;;;;20.15;36.24;98627.09;6208103;28;126144;-67
2021/05/27 04:31:20;;;;;;;;;4.00;3.00;;;;;20.26;36.13;98634.09;6205551;28;125186;-67
2021/05/27 04:34:22;;;;;;;;;5.00;4.00;;;;;20.36;36.31;98633.19;6180298;28;124115;-67
2021/05/27 04:37:25;;;;;;;;;4.00;4.00;;;;;20.37;36.35;98626.63;6209591;28;127184;-69
2021/05/27 04:40:28;;;;;;;;;4.00;4.00;;;;;20.30;36.42;98605.88;6203726;28;125566;-68
2021/05/27 04:43:34;;;;;;;;;6.00;4.60;;;;;20.54;36.34;98627.78;6185709;28;125361;-68
2021/05/27 04:46:36;;;;;;;;;5.00;5.00;;;;;20.60;36.58;98615.66;6212435;28;124811;-69
2021/05/27 04:49:39;;;;;;;;;4.00;4.00;;;;;20.60;36.36;98621.13;6205988;28;125317;-69
2021/05/27 04:52:42;;;;;;;;;4.25;3.00;;;;;20.57;36.23;98629.94;6215409;28;125474;-69
2021/05/27 04:55:45;;;;;;;;;4.00;4.00;;;;;20.68;36.06;98617.72;6210563;28;125947;-69
2021/05/27 04:58:49;;;;;;;;;7.00;5.40;;;;;20.81;36.07;98618.13;6213608;28;126303;-68
2021/05/27 05:01:51;;;;;;;;;5.00;4.00;;;;;20.92;35.99;98622.34;6202102;28;126304;-68
2021/05/27 05:04:54;;;;;;;;;5.00;4.60;;;;;20.97;36.00;98612.13;6203224;28;124480;-68
2021/05/27 05:07:57;;;;;;;;;4.00;4.00;;;;;21.06;36.07;98615.81;6198005;28;126329;-68
2021/05/27 05:11:00;;;;;;;;;4.00;3.00;;;;;21.10;36.77;98613.31;6205639;28;125219;-69
2021/05/27 05:14:04;;;;;;;;;4.00;3.00;;;;;21.20;35.94;98613.22;6207606;28;124985;-67
2021/05/27 05:17:07;;;;;;;;;3.40;3.00;;;;;21.34;36.04;98618.75;6206073;28;125021;-67
2021/05/27 05:20:11;;;;;;;;;3.00;3.00;;;;;21.41;35.56;98622.72;6209178;28;123133;-67
2021/05/27 05:23:14;;;;;;;;;4.00;3.00;;;;;21.16;35.68;98574.59;6198812;28;124415;-67
2021/05/27 05:26:16;;;;;;;;;4.00;3.60;;;;;21.49;35.67;98624.81;6204223;28;124964;-68
2021/05/27 05:29:20;;;;;;;;;4.00;4.00;;;;;21.51;35.13;98627.22;6193925;28;125077;-67
2021/05/27 05:32:23;;;;;;;;;4.25;4.00;;;;;21.69;35.35;98640.13;6192635;28;125964;-67
2021/05/27 05:35:27;;;;;;;;;4.00;4.00;;;;;21.81;34.99;98643.19;6208250;28;126024;-67
2021/05/27 05:38:29;;;;;;;;;3.40;3.00;;;;;22.06;35.19;98636.47;6206745;28;124127;-67
2021/05/27 05:41:32;;;;;;;;;4.50;4.50;;;;;22.17;34.84;98640.66;6202243;28;125231;-68
2021/05/27 05:44:36;;;;;;;;;4.00;4.00;;;;;22.30;34.21;98647.28;6204202;28;125382;-67
2021/05/27 05:47:39;;;;;;;;;4.00;4.00;;;;;22.38;33.80;98649.34;6202968;28;126202;-67
2021/05/27 05:50:46;;;;;;;;;3.00;3.00;;;;;22.56;33.94;98645.66;6191653;28;123882;-68
2021/05/27 05:53:49;;;;;;;;;3.25;3.00;;;;;22.68;32.98;98647.88;6207881;28;126222;-69
2021/05/27 05:56:51;;;;;;;;;3.00;3.00;;;;;22.85;32.86;98648.13;6205278;28;124307;-68
2021/05/27 05:59:55;;;;;;;;;3.00;3.00;;;;;23.01;31.84;98660.44;6201635;28;126889;-69
2021/05/27 06:02:58;;;;;;;;;2.20;2.20;;;;;23.11;31.72;98662.94;6202350;28;124209;-68
2021/05/27 06:06:19;;;;;;;;;3.40;2.00;;;;;23.22;31.85;98660.75;6209521;28;126081;-68
2021/05/27 06:09:32;;;;;;;;;2.00;2.00;;;;;23.27;30.81;98661.47;6211850;28;126359;-69
2021/05/27 06:12:35;;;;;;;;;2.00;2.00;;;;;23.44;31.41;98663.56;6191978;28;126365;-68
2021/05/27 06:15:40;;;;;;;;;3.00;3.00;;;;;23.61;30.79;98660.97;6197675;28;124450;-65
2021/05/27 06:18:43;;;;;;;;;2.00;2.00;;;;;23.75;30.81;98645.19;6211198;28;126334;-69
2021/05/27 06:22:21;;;;;;;;;3.00;3.00;;;;;23.94;30.80;98649.72;6180178;28;124770;-69
2021/05/27 06:25:30;;;;;;;;;3.00;2.00;;;;;24.03;30.42;98642.31;6197923;28;124919;-68
2021/05/27 06:28:32;;;;;;;;;3.00;2.00;;;;;24.05;30.83;98638.09;6210745;28;126985;-69
2021/05/27 06:31:36;;;;;;;;;3.00;3.00;;;;;24.15;30.19;98646.09;6206283;28;126902;-69
2021/05/27 06:34:39;;;;;;;;;2.00;1.00;;;;;24.28;30.48;98646.38;6204834;28;125005;-69
2021/05/27 06:37:43;;;;;;;;;2.00;2.00;;;;;24.35;30.39;98663.22;6198499;28;124804;-69
2021/05/27 06:40:45;;;;;;;;;3.00;3.00;;;;;24.41;29.89;98654.53;6203433;28;126238;-69
2021/05/27 06:43:49;;;;;;;;;2.00;2.00;;;;;24.36;29.94;98637.31;6204904;28;124814;-71
2021/05/27 06:46:53;;;;;;;;;3.00;2.60;;;;;24.60;30.22;98657.84;6203595;28;126077;-70
2021/05/27 06:49:56;;;;;;;;;3.00;3.00;;;;;24.75;30.99;98670.38;6210424;28;125299;-69
2021/05/27 06:53:00;;;;;;;;;3.00;2.00;;;;;24.95;30.64;98666.25;6210410;28;126352;-70
2021/05/27 06:56:03;;;;;;;;;3.60;2.60;;;;;25.04;30.17;98667.06;6210055;28;125204;-70
2021/05/27 06:59:06;;;;;;;;;2.00;1.50;;;;;24.97;30.16;98675.03;6210368;28;125236;-70
2021/05/27 07:02:10;;;;;;;;;1.40;1.40;;;;;25.00;30.21;98671.59;6207702;28;126312;-71
2021/05/27 07:05:13;;;;;;;;;1.25;1.25;;;;;25.12;29.40;98671.78;6209742;28;125039;-67
2021/05/27 07:08:16;;;;;;;;;2.80;1.00;;;;;25.26;29.68;98672.47;6205051;28;127706;-68
2021/05/27 07:11:19;;;;;;;;;3.00;1.60;;;;;25.38;30.04;98671.81;6209265;28;126363;-68
2021/05/27 07:14:21;;;;;;;;;2.00;2.00;;;;;25.46;28.90;98662.75;6210204;28;125086;-69
2021/05/27 07:17:25;;;;;;;;;1.00;1.00;;;;;25.27;28.27;98637.38;6207468;28;125168;-67
2021/05/27 07:20:28;;;;;;;;;1.40;1.40;;;;;25.41;28.33;98666.44;6209973;28;125275;-67
2021/05/27 07:23:31;;;;;;;;;1.00;1.00;;;;;25.35;28.05;98666.94;6199895;28;125405;-66
2021/05/27 07:26:34;;;;;;;;;1.00;1.00;;;;;25.27;27.75;98673.25;6192391;28;125233;-67
2021/05/27 07:29:37;;;;;;;;;1.00;1.00;;;;;25.28;28.39;98670.19;6200934;28;126871;-69
2021/05/27 07:32:40;;;;;;;;;3.00;1.00;;;;;25.29;28.29;98677.34;6216311;28;126007;-68
2021/05/27 07:35:44;;;;;;;;;1.00;1.00;;;;;25.16;27.92;98672.78;6185436;28;125992;-69
2021/05/27 07:38:46;;;;;;;;;2.00;1.00;;;;;24.89;27.91;98690.41;6217160;28;126316;-68
2021/05/27 07:41:50;;;;;;;;;1.00;1.00;;;;;24.74;28.50;98677.00;6198844;28;125500;-68
2021/05/27 07:44:52;;;;;;;;;2.00;2.00;;;;;24.68;29.22;98671.97;6184272;28;125072;-68
2021/05/27 07:47:56;;;;;;;;;3.00;2.00;;;;;24.76;29.44;98676.69;6195297;28;125235;-68
2021/05/27 07:50:59;;;;;;;;;1.00;1.00;;;;;25.01;28.97;98682.31;6178805;28;126334;-68
2021/05/27 07:54:01;;;;;;;;;2.00;1.20;;;;;25.18;28.80;98677.97;6197837;28;125031;-68
2021/05/27 07:57:05;;;;;;;;;0.60;0.60;;;;;25.34;28.77;98668.91;6197503;28;124985;-68
2021/05/27 08:00:10;;;;;;;;;2.00;1.00;;;;;25.44;29.23;98681.56;6186458;28;125113;-68
2021/05/27 08:03:17;;;;;;;;;1.00;1.00;;;;;25.71;28.06;98675.75;6187511;28;124901;-67
2021/05/27 08:06:20;;;;;;;;;2.80;2.00;;;;;25.95;28.26;98675.22;6180261;28;124239;-67
2021/05/27 08:09:22;;;;;;;;;2.00;1.20;;;;;26.04;27.39;98683.50;6196948;28;124968;-69
2021/05/27 08:12:25;;;;;;;;;1.80;1.00;;;;;26.10;27.86;98685.75;6194215;28;126556;-66
2021/05/27 08:15:28;;;;;;;;;2.00;2.00;;;;;25.82;27.33;98684.50;6201472;28;124502;-68
2021/05/27 08:18:31;;;;;;;;;1.00;1.00;;;;;25.48;27.99;98687.25;6207253;28;125246;-66
2021/05/27 08:21:34;;;;;;;;;2.40;2.00;;;;;25.71;28.94;98689.53;6206986;28;126929;-66
2021/05/27 08:24:37;;;;;;;;;2.00;1.50;;;;;25.82;29.20;98692.78;6221518;28;124332;-69
2021/05/27 08:27:40;;;;;;;;;1.00;1.00;;;;;26.06;28.75;98682.03;6205562;28;124679;-68
2021/05/27 08:30:44;;;;;;;;;2.00;1.25;;;;;26.07;28.11;98680.91;6204890;28;126740;-67
2021/05/27 08:33:48;;;;;;;;;2.00;1.80;;;;;26.27;27.81;98683.00;6207004;28;126244;-68
2021/05/27 08:36:52;;;;;;;;;1.00;1.00;;;;;26.49;27.27;98675.59;6207253;28;125314;-67
2021/05/27 08:39:54;;;;;;;;;2.00;2.00;;;;;26.69;26.80;98683.16;6205127;28;125266;-67
2021/05/27 08:42:58;;;;;;;;;3.00;3.00;;;;;26.54;26.46;98683.69;6202237;28;125705;-68
2021/05/27 08:46:03;;;;;;;;;2.00;2.00;;;;;26.48;27.20;98679.53;6199142;28;126188;-69
2021/05/27 08:49:07;;;;;;;;;1.00;1.00;;;;;26.50;26.55;98694.63;6201329;28;124349;-67
2021/05/27 08:52:10;;;;;;;;;1.00;1.00;;;;;26.74;27.38;98689.31;6199830;28;126527;-66
2021/05/27 08:55:14;;;;;;;;;1.00;1.00;;;;;26.98;26.29;98694.25;6200806;28;126192;-68
2021/05/27 08:58:17;;;;;;;;;2.00;2.00;;;;;27.01;25.89;98701.09;6200610;28;125167;-73
2021/05/27 09:01:23;;;;;;;;;1.00;1.00;;;;;26.77;26.27;98692.56;6201826;28;126929;-69
2021/05/27 09:04:26;;;;;;;;;2.00;2.00;;;;;26.26;26.79;98700.72;6200589;28;126941;-69
2021/05/27 09:07:42;;;;;;;;;1.00;1.00;;;;;26.34;26.89;98695.50;6186305;28;124149;-68
2021/05/27 09:10:49;;;;;;;;;1.00;1.00;;;;;26.03;26.96;98668.88;6202863;28;124983;-73
2021/05/27 09:13:54;;;;;;;;;2.00;2.00;;;;;26.34;26.82;98687.22;6178390;28;123651;-68
2021/05/27 09:16:57;;;;;;;;;2.00;2.00;;;;;26.54;26.58;98692.00;6206296;28;124111;-68
2021/05/27 09:20:16;;;;;;;;;1.00;1.00;;;;;26.69;26.99;98696.97;6196518;28;126647;-67
2021/05/27 09:23:21;;;;;;;;;2.00;2.00;;;;;26.90;26.94;98694.31;6207337;28;124379;-68
2021/05/27 09:26:23;;;;;;;;;1.00;1.00;;;;;27.09;25.46;98703.81;6204779;28;126798;-64
2021/05/27 09:29:27;;;;;;;;;1.00;1.00;;;;;27.29;26.12;98695.88;6203634;28;128135;-65
2021/05/27 09:32:30;;;;;;;;;3.00;3.00;;;;;27.41;24.32;98702.31;6207097;28;126559;-67
2021/05/27 09:35:33;;;;;;;;;2.00;2.00;;;;;27.71;25.02;98697.53;6197009;28;124715;-66
2021/05/27 09:38:38;;;;;;;;;1.00;1.00;;;;;27.78;24.79;98697.00;6203697;28;126586;-66
2021/05/27 09:41:41;;;;;;;;;1.00;1.00;;;;;28.03;24.21;98698.72;6202037;28;126819;-65
2021/05/27 09:44:43;;;;;;;;;1.00;1.00;;;;;28.15;24.28;98701.53;6203586;28;128819;-70
2021/05/27 09:47:46;;;;;;;;;2.00;2.00;;;;;28.24;24.17;98695.94;6210659;28;126013;-67
2021/05/27 09:50:50;;;;;;;;;2.00;2.00;;;;;28.22;24.65;98707.34;6206380;28;125779;-66
2021/05/27 09:53:54;;;;;;;;;2.00;2.00;;;;;28.05;24.34;98704.75;6207556;28;125152;-66
2021/05/27 09:56:56;;;;;;;;;3.00;2.50;;;;;27.92;24.38;98705.81;6206554;28;126268;-66
2021/05/27 09:59:59;;;;;;;;;3.00;2.00;;;;;28.00;25.03;98716.81;6203035;28;126940;-65
2021/05/27 10:03:24;;;;;;;;;1.50;1.50;;;;;27.61;24.90;98725.66;6199863;28;125521;-66
2021/05/27 10:06:31;;;;;;;;;2.00;1.00;;;;;27.80;25.09;98698.28;6231253;27;123858;-67
2021/05/27 10:09:34;;;;;;;;;1.00;1.00;;;;;28.05;24.70;98707.50;6191520;28;126019;-65
2021/05/27 10:12:40;;;;;;;;;2.00;2.00;;;;;28.30;25.20;98705.63;6203311;28;125104;-72
2021/05/27 10:15:44;;;;;;;;;1.50;1.50;;;;;28.56;24.48;98702.56;6192903;28;124858;-67
2021/05/27 10:18:47;;;;;;;;;3.00;3.00;;;;;28.40;23.97;98666.38;6190715;28;127368;-67
2021/05/27 10:21:51;;;;;;;;;1.20;1.20;;;;;28.78;24.78;98699.41;6191842;28;124721;-65
2021/05/27 10:24:54;;;;;;;;;2.00;2.00;;;;;29.00;24.21;98698.94;6189710;28;125581;-66
2021/05/27 10:27:58;;;;;;;;;1.40;1.40;;;;;28.98;23.63;98683.78;6192271;28;125531;-66
2021/05/27 10:31:02;;;;;;;;;3.00;2.00;;;;;28.90;24.21;98691.06;6200898;28;124715;-67
2021/05/27 10:34:06;;;;;;;;;2.60;2.60;;;;;28.62;23.93;98681.78;6187979;28;126240;-65
2021/05/27 10:37:10;;;;;;;;;2.00;1.20;;;;;28.58;24.18;98697.50;6184394;28;127870;-66
2021/05/27 10:40:36;;;;;;;;;4.00;3.40;;;;;28.61;23.83;98696.78;6192799;28;124822;-65
2021/05/27 10:44:15;;;;;;;;;2.00;2.00;;;;;28.73;24.03;98697.66;6188719;28;124044;-64
2021/05/27 10:47:18;;;;;;;;;3.00;3.00;;;;;28.83;24.84;98701.94;6213590;28;124975;-64
2021/05/27 10:51:03;;;;;;;;;2.00;2.00;;;;;29.02;24.07;98695.81;6197280;28;126444;-65
2021/05/27 10:54:08;;;;;;;;;2.00;2.00;;;;;29.41;23.84;98700.66;6203682;28;124615;-66
2021/05/27 10:57:47;;;;;;;;;2.00;2.00;;;;;29.75;23.16;98698.47;6200570;28;124802;-66
2021/05/27 11:00:53;;;;;;;;;1.40;1.00;;;;;29.67;23.03;98689.09;6210466;28;126008;-67
2021/05/27 11:03:57;;;;;;;;;1.40;1.00;;;;;29.75;23.34;98698.47;6204301;28;125741;-67
2021/05/27 11:07:11;;;;;;;;;1.00;1.00;;;;;29.73;24.12;98695.22;6207988;28;126852;-67
2021/05/27 11:10:29;;;;;;;;;1.00;1.00;;;;;29.78;23.26;98698.56;6208753;28;125954;-68
2021/05/27 11:13:32;;;;;;;;;2.00;2.00;;;;;30.00;23.56;98689.72;6203401;28;126039;-67
2021/05/27 11:16:35;;;;;;;;;2.50;2.50;;;;;30.10;23.22;98699.53;6207461;28;125190;-66
2021/05/27 11:19:52;;;;;;;;;2.00;2.00;;;;;30.20;23.20;98689.88;6209525;28;124091;-65
2021/05/27 11:23:01;;;;;;;;;1.00;1.00;;;;;30.35;22.84;98684.31;6195204;28;124843;-65
2021/05/27 11:26:18;;;;;;;;;2.00;2.00;;;;;30.16;23.24;98689.75;6205335;28;125464;-65
2021/05/27 11:29:21;;;;;;;;;1.00;1.00;;;;;29.95;22.71;98681.66;6188991;28;123827;-66
2021/05/27 11:32:38;;;;;;;;;2.60;2.00;;;;;29.65;22.98;98685.91;6194640;27;126692;-66
2021/05/27 11:35:43;;;;;;;;;3.00;2.00;;;;;29.35;23.53;98682.63;6185926;28;126164;-66
2021/05/27 11:38:46;;;;;;;;;1.80;1.80;;;;;29.36;23.65;98688.97;6197808;28;125536;-66
2021/05/27 11:41:50;;;;;;;;;3.00;3.00;;;;;29.18;23.55;98691.97;6184219;28;126361;-66
2021/05/27 11:44:57;;;;;;;;;3.00;3.00;;;;;29.00;23.83;98701.69;6189006;28;126467;-66
2021/05/27 11:48:09;;;;;;;;;2.00;2.00;;;;;29.00;23.11;98701.69;6188130;28;124884;-66
2021/05/27 11:51:14;;;;;;;;;3.00;3.00;;;;;28.95;23.63;98693.59;6197922;28;125174;-65
2021/05/27 11:54:17;;;;;;;;;3.00;2.80;;;;;28.88;23.46;98690.63;6215594;28;124945;-67
2021/05/27 11:57:21;;;;;;;;;3.00;2.00;;;;;28.90;23.91;98688.28;6203424;28;124861;-68
2021/05/27 12:00:24;;;;;;;;;2.00;2.00;;;;;28.89;24.09;98694.19;6192386;28;126127;-68
2021/05/27 12:03:27;;;;;;;;;4.00;4.00;;;;;29.00;24.11;98687.00;6197970;28;125180;-67
2021/05/27 12:06:59;;;;;;;;;3.40;3.40;;;;;29.02;23.81;98690.28;6200245;28;125362;-68
2021/05/27 12:10:05;;;;;;;;;3.60;3.60;;;;;29.11;23.74;98690.94;6199121;28;126554;-67
2021/05/27 12:13:18;;;;;;;;;2.00;2.00;;;;;29.14;24.32;98691.06;6189958;28;124558;-64
2021/05/27 12:16:30;;;;;;;;;3.00;3.00;;;;;29.17;24.18;98695.13;6199360;28;124871;-65
2021/05/27 12:19:32;;;;;;;;;3.00;3.00;;;;;29.16;23.83;98697.06;6201642;28;126396;-66
2021/05/27 12:22:47;;;;;;;;;2.60;2.00;;;;;28.77;23.71;98692.22;6200016;28;126418;-66
2021/05/27 12:25:51;;;;;;;;;3.00;3.00;;;;;28.83;24.67;98679.75;6202546;28;124048;-66
2021/05/27 12:28:56;;;;;;;;;2.20;2.00;;;;;28.86;23.99;98704.03;6196187;28;126202;-68
2021/05/27 12:31:59;;;;;;;;;2.00;2.00;;;;;28.70;24.19;98690.00;6201467;28;127369;-66
2021/05/27 12:35:02;;;;;;;;;2.00;2.00;;;;;28.58;24.09;98687.22;6200003;28;128001;-65
2021/05/27 12:38:07;;;;;;;;;3.00;3.00;;;;;28.50;24.18;98692.84;6202764;28;126512;-65
2021/05/27 12:41:10;;;;;;;;;1.50;1.50;;;;;28.46;24.67;98692.72;6207994;28;126080;-65
2021/05/27 12:44:14;;;;;;;;;2.00;1.00;;;;;28.57;24.52;98693.09;6205610;28;124546;-70
2021/05/27 12:47:19;;;;;;;;;3.00;3.00;;;;;28.33;24.50;98696.63;6198512;28;126943;-65
2021/05/27 12:50:22;;;;;;;;;1.00;1.00;;;;;28.13;25.31;98690.00;6208798;28;125127;-67
2021/05/27 12:53:27;;;;;;;;;4.00;3.00;;;;;27.98;25.41;98718.31;6207314;28;125976;-65
2021/05/27 12:56:33;;;;;;;;;4.00;4.00;;;;;27.84;25.14;98704.75;6208514;28;124343;-67
2021/05/27 12:59:38;;;;;;;;;2.00;2.00;;;;;27.62;25.26;98694.00;6205867;28;124392;-67
2021/05/27 13:02:41;;;;;;;;;4.40;4.00;;;;;27.53;25.63;98707.94;6205377;28;125765;-67
2021/05/27 13:05:44;;;;;;;;;4.00;3.00;;;;;27.25;27.08;98717.88;6203576;28;125171;-67
2021/05/27 13:08:47;;;;;;;;;2.67;2.67;;;;;27.00;27.80;98719.66;6201683;28;125865;-67
2021/05/27 13:11:59;;;;;;;;;3.00;2.00;;;;;26.97;27.32;98694.63;6205377;28;123061;-67
2021/05/27 13:15:08;;;;;;;;;2.00;2.00;;;;;26.98;27.37;98688.72;6217021;28;126548;-68
2021/05/27 13:18:13;;;;;;;;;2.00;2.00;;;;;26.91;26.85;98671.84;6203399;28;124258;-68
2021/05/27 13:21:15;;;;;;;;;3.00;3.00;;;;;26.93;26.67;98680.63;6206177;28;126247;-70
2021/05/27 13:24:24;;;;;;;;;4.00;4.00;;;;;27.01;26.64;98676.19;6201254;28;126269;-67
2021/05/27 13:27:34;;;;;;;;;1.00;1.00;;;;;26.86;26.45;98682.28;6205574;28;125320;-69
2021/05/27 13:30:43;;;;;;;;;3.00;3.00;;;;;26.79;26.81;98682.78;6202083;28;126058;-69
2021/05/27 13:33:56;;;;;;;;;5.00;4.00;;;;;26.56;26.32;98685.00;6198943;28;123580;-69
2021/05/27 13:37:03;;;;;;;;;3.00;3.00;;;;;26.48;26.99;98685.06;6200654;28;124684;-68
2021/05/27 13:40:08;;;;;;;;;2.00;2.00;;;;;26.46;26.86;98685.38;6202003;28;126318;-67
2021/05/27 13:43:12;;;;;;;;;3.75;3.00;;;;;26.39;27.06;98687.03;6201616;28;126015;-62
2021/05/27 13:46:15;;;;;;;;;3.00;3.00;;;;;26.46;27.56;98679.03;6199234;28;126095;-63
2021/05/27 13:49:19;;;;;;;;;3.00;3.00;;;;;26.34;27.96;98687.22;6212453;28;126547;-62
2021/05/27 13:52:21;;;;;;;;;2.00;2.00;;;;;26.13;27.60;98676.00;6211970;28;126315;-61
2021/05/27 13:55:26;;;;;;;;;3.80;3.80;;;;;25.97;28.01;98686.75;6201239;28;126224;-61
2021/05/27 13:58:29;;;;;;;;;3.00;3.00;;;;;25.89;28.41;98654.47;6220826;28;126304;-61
2021/05/27 14:01:33;;;;;;;;;3.00;3.00;;;;;26.13;28.18;98681.53;6209175;28;127997;-62
2021/05/27 14:04:37;;;;;;;;;3.60;2.00;;;;;26.06;28.14;98668.22;6197634;28;124458;-63
2021/05/27 14:07:39;;;;;;;;;4.50;4.00;;;;;26.33;27.99;98680.88;6204341;28;126576;-62
2021/05/27 14:10:43;;;;;;;;;4.00;3.00;;;;;26.32;28.29;98679.25;6210020;28;125835;-62
2021/05/27 14:13:48;;;;;;;;;2.00;2.00;;;;;26.47;27.49;98681.47;6210370;28;126587;-62
2021/05/27 14:16:51;;;;;;;;;3.00;3.00;;;;;26.61;27.69;98676.53;6212462;28;125194;-62
2021/05/27 14:19:54;;;;;;;;;2.00;2.00;;;;;26.45;27.64;98680.97;6206920;28;126382;-62
2021/05/27 14:22:57;;;;;;;;;3.00;3.00;;;;;26.41;27.78;98690.25;6212129;28;127635;-62
2021/05/27 14:26:00;;;;;;;;;4.00;4.00;;;;;26.36;27.98;98671.91;6209034;28;125216;-62
2021/05/27 14:29:04;;;;;;;;;3.00;3.00;;;;;26.42;28.33;98673.34;6203098;28;125135;-62
2021/05/27 14:32:08;;;;;;;;;3.75;3.75;;;;;26.36;28.50;98674.66;6207664;28;126033;-62